sensor_id;sensor_type;location;lat;lon;timestamp;pressure;altitude;pressure_sealevel;temperature;humidity
42083;BME280;27745;57.100;-2.920;2022-07-29T00:01:49;63229.69;;;-143.83;100.00
42083;BME280;27745;57.100;-2.920;2022-07-29T00:04:15;63369.84;;;-143.83;100.00
42083;BME280;27745;57.100;-2.920;2022-07-29T00:06:41;63229.69;;;-143.83;100.00
42083;BME280;27745;57.100;-2.920;2022-07-29T00:09:06;63369.84;;;-143.83;100.00
42083;BME280;27745;57.100;-2.920;2022-07-29T00:11:32;63229.69;;;-143.83;100.00
42083;BME280;27745;57.100;-2.920;2022-07-29T00:13:58;63229.69;;;-143.83;100.00
42083;BME280;27745;57.100;-2.920;2022-07-29T00:16:23;63229.69;;;-143.83;100.00
42083;BME280;27745;57.100;-2.920;2022-07-29T00:18:49;63229.69;;;-143.83;100.00
42083;BME280;27745;57.100;-2.920;2022-07-29T00:21:14;63229.69;;;-143.83;100.00
42083;BME280;27745;57.100;-2.920;2022-07-29T00:23:40;63229.69;;;-143.83;100.00
42083;BME280;27745;57.100;-2.920;2022-07-29T00:26:05;63229.69;;;-143.83;100.00
42083;BME280;27745;57.100;-2.920;2022-07-29T00:28:30;63229.69;;;-143.83;100.00
42083;BME280;27745;57.100;-2.920;2022-07-29T00:30:56;63229.69;;;-143.83;100.00
42083;BME280;27745;57.100;-2.920;2022-07-29T00:33:21;63229.69;;;-143.83;100.00
42083;BME280;27745;57.100;-2.920;2022-07-29T00:35:48;63229.69;;;-143.83;100.00
42083;BME280;27745;57.100;-2.920;2022-07-29T00:38:15;63229.69;;;-143.83;100.00
42083;BME280;27745;57.100;-2.920;2022-07-29T00:40:42;63229.69;;;-143.83;100.00
42083;BME280;27745;57.100;-2.920;2022-07-29T00:43:08;76883.88;;;-143.83;nan
42083;BME280;27745;57.100;-2.920;2022-07-29T00:45:34;63229.69;;;-143.83;100.00
42083;BME280;27745;57.100;-2.920;2022-07-29T00:48:01;63229.69;;;-143.83;100.00
42083;BME280;27745;57.100;-2.920;2022-07-29T00:50:28;99142.00;;;8.89;nan
42083;BME280;27745;57.100;-2.920;2022-07-29T00:52:54;63229.69;;;-143.83;100.00
42083;BME280;27745;57.100;-2.920;2022-07-29T00:55:20;76839.34;;;-143.83;nan
42083;BME280;27745;57.100;-2.920;2022-07-29T00:57:46;63229.69;;;-143.83;100.00
42083;BME280;27745;57.100;-2.920;2022-07-29T01:00:18;63229.69;;;-143.83;100.00
42083;BME280;27745;57.100;-2.920;2022-07-29T01:02:45;63229.69;;;-143.83;100.00
42083;BME280;27745;57.100;-2.920;2022-07-29T01:05:14;63229.69;;;-143.83;100.00
42083;BME280;27745;57.100;-2.920;2022-07-29T01:07:39;63229.69;;;-143.83;100.00
42083;BME280;27745;57.100;-2.920;2022-07-29T01:10:08;63229.69;;;-143.83;100.00
42083;BME280;27745;57.100;-2.920;2022-07-29T01:12:35;63229.69;;;-143.83;100.00
42083;BME280;27745;57.100;-2.920;2022-07-29T01:15:03;63229.69;;;-143.83;100.00
42083;BME280;27745;57.100;-2.920;2022-07-29T01:21:04;13509.63;;;-143.83;nan
42083;BME280;27745;57.100;-2.920;2022-07-29T01:27:01;63229.69;;;-143.83;100.00
42083;BME280;27745;57.100;-2.920;2022-07-29T01:29:44;63229.69;;;-143.83;100.00
42083;BME280;27745;57.100;-2.920;2022-07-29T01:32:18;63229.69;;;-143.83;100.00
42083;BME280;27745;57.100;-2.920;2022-07-29T01:37:36;63229.69;;;-143.83;100.00
42083;BME280;27745;57.100;-2.920;2022-07-29T01:40:05;63229.69;;;-143.83;100.00
42083;BME280;27745;57.100;-2.920;2022-07-29T01:42:44;63229.69;;;-143.83;100.00
42083;BME280;27745;57.100;-2.920;2022-07-29T01:45:21;63229.69;;;-143.83;100.00
42083;BME280;27745;57.100;-2.920;2022-07-29T01:48:02;63229.69;;;-143.83;100.00
42083;BME280;27745;57.100;-2.920;2022-07-29T01:50:35;63229.69;;;-143.83;100.00
42083;BME280;27745;57.100;-2.920;2022-07-29T01:53:04;63229.69;;;-143.83;100.00
42083;BME280;27745;57.100;-2.920;2022-07-29T01:55:35;63229.69;;;-143.83;100.00
42083;BME280;27745;57.100;-2.920;2022-07-29T01:58:04;63229.69;;;-143.83;100.00
42083;BME280;27745;57.100;-2.920;2022-07-29T02:00:32;63229.69;;;-143.83;100.00
42083;BME280;27745;57.100;-2.920;2022-07-29T02:03:00;63229.69;;;-143.83;100.00
42083;BME280;27745;57.100;-2.920;2022-07-29T02:05:28;63229.69;;;-143.83;100.00
42083;BME280;27745;57.100;-2.920;2022-07-29T02:07:57;63229.69;;;-143.83;100.00
42083;BME280;27745;57.100;-2.920;2022-07-29T02:10:28;63229.69;;;-143.83;100.00
42083;BME280;27745;57.100;-2.920;2022-07-29T02:12:55;63229.69;;;-143.83;100.00
42083;BME280;27745;57.100;-2.920;2022-07-29T02:15:27;63229.69;;;-143.83;100.00
42083;BME280;27745;57.100;-2.920;2022-07-29T02:17:59;63229.69;;;-143.83;100.00
42083;BME280;27745;57.100;-2.920;2022-07-29T02:20:27;63229.69;;;-143.83;100.00
42083;BME280;27745;57.100;-2.920;2022-07-29T02:22:54;63229.69;;;-143.83;100.00
42083;BME280;27745;57.100;-2.920;2022-07-29T02:25:22;63229.69;;;-143.83;100.00
42083;BME280;27745;57.100;-2.920;2022-07-29T02:27:50;63229.69;;;-143.83;100.00
42083;BME280;27745;57.100;-2.920;2022-07-29T02:30:17;63369.84;;;-143.83;100.00
42083;BME280;27745;57.100;-2.920;2022-07-29T02:32:44;63229.69;;;-143.83;100.00
42083;BME280;27745;57.100;-2.920;2022-07-29T02:35:13;63229.69;;;-143.83;100.00
42083;BME280;27745;57.100;-2.920;2022-07-29T02:37:40;63229.69;;;-143.83;100.00
42083;BME280;27745;57.100;-2.920;2022-07-29T02:40:09;63229.69;;;-143.83;100.00
42083;BME280;27745;57.100;-2.920;2022-07-29T02:42:36;63229.69;;;-143.83;100.00
42083;BME280;27745;57.100;-2.920;2022-07-29T02:45:03;63229.69;;;-143.83;100.00
42083;BME280;27745;57.100;-2.920;2022-07-29T02:47:40;63229.69;;;-143.83;100.00
42083;BME280;27745;57.100;-2.920;2022-07-29T02:50:12;63229.69;;;-143.83;100.00
42083;BME280;27745;57.100;-2.920;2022-07-29T02:52:44;63229.69;;;-143.83;100.00
42083;BME280;27745;57.100;-2.920;2022-07-29T02:55:19;63229.69;;;-143.83;100.00
42083;BME280;27745;57.100;-2.920;2022-07-29T02:57:58;63229.69;;;-143.83;100.00
42083;BME280;27745;57.100;-2.920;2022-07-29T03:00:29;63229.69;;;-143.83;100.00
42083;BME280;27745;57.100;-2.920;2022-07-29T03:02:58;63229.69;;;-143.83;100.00
42083;BME280;27745;57.100;-2.920;2022-07-29T03:05:24;63369.84;;;-143.83;100.00
42083;BME280;27745;57.100;-2.920;2022-07-29T03:07:57;63229.69;;;-143.83;100.00
42083;BME280;27745;57.100;-2.920;2022-07-29T03:10:25;63229.69;;;-143.83;100.00
42083;BME280;27745;57.100;-2.920;2022-07-29T03:12:51;63229.69;;;-143.83;100.00
42083;BME280;27745;57.100;-2.920;2022-07-29T03:15:18;99524.84;;;9.78;78.51
42083;BME280;27745;57.100;-2.920;2022-07-29T03:17:45;63369.84;;;-143.83;100.00
42083;BME280;27745;57.100;-2.920;2022-07-29T03:20:11;63229.69;;;-143.83;100.00
42083;BME280;27745;57.100;-2.920;2022-07-29T03:22:42;63229.69;;;-143.83;100.00
42083;BME280;27745;57.100;-2.920;2022-07-29T03:25:15;63229.69;;;-143.83;100.00
42083;BME280;27745;57.100;-2.920;2022-07-29T03:27:41;63369.84;;;-143.83;100.00
42083;BME280;27745;57.100;-2.920;2022-07-29T03:30:08;63229.69;;;-143.83;100.00
42083;BME280;27745;57.100;-2.920;2022-07-29T03:32:34;63369.84;;;-145.14;100.00
42083;BME280;27745;57.100;-2.920;2022-07-29T03:34:59;63229.69;;;-143.83;100.00
42083;BME280;27745;57.100;-2.920;2022-07-29T03:37:25;63229.69;;;-143.83;100.00
42083;BME280;27745;57.100;-2.920;2022-07-29T03:39:52;63229.69;;;-143.83;100.00
42083;BME280;27745;57.100;-2.920;2022-07-29T03:42:21;63229.69;;;-145.14;100.00
42083;BME280;27745;57.100;-2.920;2022-07-29T03:44:50;63229.69;;;-143.83;100.00
42083;BME280;27745;57.100;-2.920;2022-07-29T03:47:18;63369.84;;;-143.83;100.00
42083;BME280;27745;57.100;-2.920;2022-07-29T03:49:48;63229.69;;;-143.83;100.00
42083;BME280;27745;57.100;-2.920;2022-07-29T03:52:16;63229.69;;;-143.83;100.00
42083;BME280;27745;57.100;-2.920;2022-07-29T03:54:41;77041.78;;;-96.58;78.53
42083;BME280;27745;57.100;-2.920;2022-07-29T03:57:09;63229.69;;;-143.83;100.00
42083;BME280;27745;57.100;-2.920;2022-07-29T03:59:36;63229.69;;;-143.83;100.00
42083;BME280;27745;57.100;-2.920;2022-07-29T04:02:04;63229.69;;;-143.83;100.00
42083;BME280;27745;57.100;-2.920;2022-07-29T04:04:34;63229.69;;;-143.83;100.00
42083;BME280;27745;57.100;-2.920;2022-07-29T04:06:59;63229.69;;;-143.83;100.00
42083;BME280;27745;57.100;-2.920;2022-07-29T04:09:25;63229.69;;;-143.83;100.00
42083;BME280;27745;57.100;-2.920;2022-07-29T04:11:50;63229.69;;;-143.83;100.00
42083;BME280;27745;57.100;-2.920;2022-07-29T04:14:16;63229.69;;;-143.83;100.00
42083;BME280;27745;57.100;-2.920;2022-07-29T04:16:41;63229.69;;;-143.83;100.00
42083;BME280;27745;57.100;-2.920;2022-07-29T04:19:07;63229.69;;;-143.83;100.00
42083;BME280;27745;57.100;-2.920;2022-07-29T04:21:39;63229.69;;;-143.83;100.00
42083;BME280;27745;57.100;-2.920;2022-07-29T04:24:06;63229.69;;;-143.83;100.00
42083;BME280;27745;57.100;-2.920;2022-07-29T04:26:32;63229.69;;;-143.83;100.00
42083;BME280;27745;57.100;-2.920;2022-07-29T04:28:57;63229.69;;;-143.83;100.00
42083;BME280;27745;57.100;-2.920;2022-07-29T04:31:23;63229.69;;;-143.83;100.00
42083;BME280;27745;57.100;-2.920;2022-07-29T04:33:48;63229.69;;;-143.83;100.00
42083;BME280;27745;57.100;-2.920;2022-07-29T04:36:14;63229.69;;;-143.83;100.00
42083;BME280;27745;57.100;-2.920;2022-07-29T04:38:39;63229.69;;;-143.83;100.00
42083;BME280;27745;57.100;-2.920;2022-07-29T04:41:05;63229.69;;;-143.83;100.00
42083;BME280;27745;57.100;-2.920;2022-07-29T04:43:35;63229.69;;;-143.83;100.00
42083;BME280;27745;57.100;-2.920;2022-07-29T04:46:02;63229.69;;;-143.83;100.00
42083;BME280;27745;57.100;-2.920;2022-07-29T04:48:28;63369.84;;;-143.83;100.00
42083;BME280;27745;57.100;-2.920;2022-07-29T04:50:53;63229.69;;;-143.83;100.00
42083;BME280;27745;57.100;-2.920;2022-07-29T04:53:19;65727.81;;;-143.83;0.00
42083;BME280;27745;57.100;-2.920;2022-07-29T04:55:44;63229.69;;;-143.83;100.00
42083;BME280;27745;57.100;-2.920;2022-07-29T04:58:10;63229.69;;;-143.83;100.00
42083;BME280;27745;57.100;-2.920;2022-07-29T05:00:36;76748.34;;;-143.83;nan
42083;BME280;27745;57.100;-2.920;2022-07-29T05:03:02;117110.75;;;-143.83;100.00
42083;BME280;27745;57.100;-2.920;2022-07-29T05:05:27;63229.69;;;-143.83;100.00
42083;BME280;27745;57.100;-2.920;2022-07-29T05:07:53;63229.69;;;-143.83;100.00
42083;BME280;27745;57.100;-2.920;2022-07-29T05:10:18;63229.69;;;-143.83;100.00
42083;BME280;27745;57.100;-2.920;2022-07-29T05:12:44;63229.69;;;-143.83;100.00
42083;BME280;27745;57.100;-2.920;2022-07-29T05:15:09;63229.69;;;-143.83;100.00
42083;BME280;27745;57.100;-2.920;2022-07-29T05:17:35;63229.69;;;-143.83;100.00
42083;BME280;27745;57.100;-2.920;2022-07-29T05:20:00;63229.69;;;-143.83;100.00
42083;BME280;27745;57.100;-2.920;2022-07-29T05:22:26;63229.69;;;-143.83;100.00
42083;BME280;27745;57.100;-2.920;2022-07-29T05:24:51;63229.69;;;-143.83;100.00
42083;BME280;27745;57.100;-2.920;2022-07-29T05:27:17;63229.69;;;-143.83;100.00
42083;BME280;27745;57.100;-2.920;2022-07-29T05:29:42;63229.69;;;-143.83;100.00
42083;BME280;27745;57.100;-2.920;2022-07-29T05:32:08;63229.69;;;-143.83;100.00
42083;BME280;27745;57.100;-2.920;2022-07-29T05:34:33;63229.69;;;-143.83;100.00
42083;BME280;27745;57.100;-2.920;2022-07-29T05:36:59;63229.69;;;-143.83;100.00
42083;BME280;27745;57.100;-2.920;2022-07-29T05:39:24;63229.69;;;-143.83;100.00
42083;BME280;27745;57.100;-2.920;2022-07-29T05:41:50;63229.69;;;-143.83;100.00
42083;BME280;27745;57.100;-2.920;2022-07-29T05:44:15;63369.84;;;-143.83;100.00
42083;BME280;27745;57.100;-2.920;2022-07-29T05:46:41;117110.75;;;-143.83;100.00
42083;BME280;27745;57.100;-2.920;2022-07-29T05:49:07;63229.69;;;-143.83;100.00
42083;BME280;27745;57.100;-2.920;2022-07-29T05:51:33;63229.69;;;-143.83;100.00
42083;BME280;27745;57.100;-2.920;2022-07-29T05:53:59;63229.69;;;-143.83;100.00
42083;BME280;27745;57.100;-2.920;2022-07-29T05:56:25;63229.69;;;-143.83;13.56
42083;BME280;27745;57.100;-2.920;2022-07-29T05:58:51;63229.69;;;-143.83;100.00
42083;BME280;27745;57.100;-2.920;2022-07-29T06:01:16;63229.69;;;-143.83;13.56
42083;BME280;27745;57.100;-2.920;2022-07-29T06:03:42;63229.69;;;-143.83;100.00
42083;BME280;27745;57.100;-2.920;2022-07-29T06:06:08;63229.69;;;-143.83;100.00
42083;BME280;27745;57.100;-2.920;2022-07-29T06:08:34;63229.69;;;-143.83;100.00
42083;BME280;27745;57.100;-2.920;2022-07-29T06:11:00;63229.69;;;-143.83;100.00
42083;BME280;27745;57.100;-2.920;2022-07-29T06:13:26;63229.69;;;-143.83;100.00
42083;BME280;27745;57.100;-2.920;2022-07-29T06:15:51;63229.69;;;-143.83;100.00
42083;BME280;27745;57.100;-2.920;2022-07-29T06:18:17;63229.69;;;-143.83;100.00
42083;BME280;27745;57.100;-2.920;2022-07-29T06:20:42;63229.69;;;-143.83;100.00
42083;BME280;27745;57.100;-2.920;2022-07-29T06:23:08;63229.69;;;-143.83;100.00
42083;BME280;27745;57.100;-2.920;2022-07-29T06:25:35;63229.69;;;-143.83;100.00
42083;BME280;27745;57.100;-2.920;2022-07-29T06:28:02;117110.75;;;-143.83;0.00
42083;BME280;27745;57.100;-2.920;2022-07-29T06:30:27;63229.69;;;-143.83;100.00
42083;BME280;27745;57.100;-2.920;2022-07-29T06:32:54;63229.69;;;-143.83;100.00
42083;BME280;27745;57.100;-2.920;2022-07-29T06:35:20;63229.69;;;-143.83;100.00
42083;BME280;27745;57.100;-2.920;2022-07-29T06:37:46;63229.69;;;-143.83;100.00
42083;BME280;27745;57.100;-2.920;2022-07-29T06:40:12;63229.69;;;-143.83;100.00
42083;BME280;27745;57.100;-2.920;2022-07-29T06:42:56;63229.69;;;-143.83;100.00
42083;BME280;27745;57.100;-2.920;2022-07-29T06:45:22;63229.69;;;-143.83;100.00
42083;BME280;27745;57.100;-2.920;2022-07-29T06:47:47;63229.69;;;-143.83;100.00
42083;BME280;27745;57.100;-2.920;2022-07-29T06:50:13;63229.69;;;-143.83;100.00
42083;BME280;27745;57.100;-2.920;2022-07-29T06:52:39;63369.84;;;-143.83;100.00
42083;BME280;27745;57.100;-2.920;2022-07-29T06:55:06;63229.69;;;-143.83;100.00
42083;BME280;27745;57.100;-2.920;2022-07-29T06:57:32;63229.69;;;-143.83;100.00
42083;BME280;27745;57.100;-2.920;2022-07-29T06:59:57;63229.69;;;-143.83;100.00
42083;BME280;27745;57.100;-2.920;2022-07-29T07:02:23;63229.69;;;-143.83;100.00
42083;BME280;27745;57.100;-2.920;2022-07-29T07:04:48;63229.69;;;-143.83;100.00
42083;BME280;27745;57.100;-2.920;2022-07-29T07:07:14;65859.47;;;-143.83;nan
42083;BME280;27745;57.100;-2.920;2022-07-29T07:09:40;63229.69;;;-143.83;100.00
42083;BME280;27745;57.100;-2.920;2022-07-29T07:12:06;63229.69;;;-143.83;100.00
42083;BME280;27745;57.100;-2.920;2022-07-29T07:14:31;63229.69;;;-143.83;100.00
42083;BME280;27745;57.100;-2.920;2022-07-29T07:16:57;63229.69;;;-143.83;100.00
42083;BME280;27745;57.100;-2.920;2022-07-29T07:19:22;63229.69;;;-143.83;100.00
42083;BME280;27745;57.100;-2.920;2022-07-29T07:21:48;63369.84;;;-143.83;100.00
42083;BME280;27745;57.100;-2.920;2022-07-29T07:24:14;63369.84;;;-145.14;100.00
42083;BME280;27745;57.100;-2.920;2022-07-29T07:26:39;63229.69;;;-143.83;100.00
42083;BME280;27745;57.100;-2.920;2022-07-29T07:29:05;63229.69;;;-143.83;100.00
42083;BME280;27745;57.100;-2.920;2022-07-29T07:31:31;63229.69;;;-143.83;100.00
42083;BME280;27745;57.100;-2.920;2022-07-29T07:33:57;63229.69;;;-143.83;100.00
42083;BME280;27745;57.100;-2.920;2022-07-29T07:36:23;63229.69;;;-143.83;100.00
42083;BME280;27745;57.100;-2.920;2022-07-29T07:38:48;63229.69;;;-143.83;100.00
42083;BME280;27745;57.100;-2.920;2022-07-29T07:41:14;63229.69;;;-143.83;100.00
42083;BME280;27745;57.100;-2.920;2022-07-29T07:43:40;63229.69;;;-143.83;0.00
42083;BME280;27745;57.100;-2.920;2022-07-29T07:46:05;63229.69;;;-143.83;100.00
42083;BME280;27745;57.100;-2.920;2022-07-29T07:48:31;63229.69;;;-143.83;100.00
42083;BME280;27745;57.100;-2.920;2022-07-29T07:50:56;63229.69;;;-143.83;100.00
42083;BME280;27745;57.100;-2.920;2022-07-29T07:53:22;63229.69;;;-143.83;100.00
42083;BME280;27745;57.100;-2.920;2022-07-29T07:55:47;63229.69;;;-143.83;100.00
42083;BME280;27745;57.100;-2.920;2022-07-29T07:58:13;63229.69;;;-143.83;100.00
42083;BME280;27745;57.100;-2.920;2022-07-29T08:00:38;63229.69;;;-143.83;100.00
42083;BME280;27745;57.100;-2.920;2022-07-29T08:03:04;63229.69;;;-143.83;100.00
42083;BME280;27745;57.100;-2.920;2022-07-29T08:05:30;63229.69;;;-143.83;100.00
42083;BME280;27745;57.100;-2.920;2022-07-29T08:07:55;63229.69;;;-143.83;100.00
42083;BME280;27745;57.100;-2.920;2022-07-29T08:10:21;63229.69;;;-143.83;100.00
42083;BME280;27745;57.100;-2.920;2022-07-29T08:13:09;63229.69;;;-143.83;100.00
42083;BME280;27745;57.100;-2.920;2022-07-29T08:15:38;63229.69;;;-143.83;100.00
42083;BME280;27745;57.100;-2.920;2022-07-29T08:18:04;63229.69;;;-143.83;100.00
42083;BME280;27745;57.100;-2.920;2022-07-29T08:20:30;63229.69;;;-143.83;100.00
42083;BME280;27745;57.100;-2.920;2022-07-29T08:22:57;63229.69;;;-143.83;100.00
42083;BME280;27745;57.100;-2.920;2022-07-29T08:25:22;63229.69;;;-143.83;100.00
42083;BME280;27745;57.100;-2.920;2022-07-29T08:27:48;63229.69;;;-143.83;100.00
42083;BME280;27745;57.100;-2.920;2022-07-29T08:30:13;76230.13;;;-143.83;79.01
42083;BME280;27745;57.100;-2.920;2022-07-29T08:32:39;63229.69;;;-143.83;100.00
42083;BME280;27745;57.100;-2.920;2022-07-29T08:35:05;63229.69;;;-143.83;100.00
42083;BME280;27745;57.100;-2.920;2022-07-29T08:37:31;63229.69;;;-143.83;100.00
42083;BME280;27745;57.100;-2.920;2022-07-29T08:39:56;63229.69;;;-143.83;100.00
42083;BME280;27745;57.100;-2.920;2022-07-29T08:42:21;76230.13;;;-143.83;nan
42083;BME280;27745;57.100;-2.920;2022-07-29T08:44:48;63229.69;;;-143.83;100.00
42083;BME280;27745;57.100;-2.920;2022-07-29T08:47:14;63229.69;;;-143.83;100.00
42083;BME280;27745;57.100;-2.920;2022-07-29T08:49:39;63229.69;;;-143.83;100.00
42083;BME280;27745;57.100;-2.920;2022-07-29T08:52:06;63229.69;;;-143.83;100.00
42083;BME280;27745;57.100;-2.920;2022-07-29T08:54:32;63229.69;;;-143.83;100.00
42083;BME280;27745;57.100;-2.920;2022-07-29T08:56:58;63229.69;;;-143.83;100.00
42083;BME280;27745;57.100;-2.920;2022-07-29T08:59:25;63229.69;;;-143.83;100.00
42083;BME280;27745;57.100;-2.920;2022-07-29T09:01:53;63229.69;;;-143.83;100.00
42083;BME280;27745;57.100;-2.920;2022-07-29T09:04:20;63229.69;;;-143.83;100.00
42083;BME280;27745;57.100;-2.920;2022-07-29T09:06:47;63229.69;;;-143.83;100.00
42083;BME280;27745;57.100;-2.920;2022-07-29T09:09:14;63229.69;;;-143.83;100.00
42083;BME280;27745;57.100;-2.920;2022-07-29T09:11:40;63229.69;;;-143.83;100.00
42083;BME280;27745;57.100;-2.920;2022-07-29T09:14:06;63229.69;;;-143.83;100.00
42083;BME280;27745;57.100;-2.920;2022-07-29T09:17:04;63229.69;;;-143.83;100.00
42083;BME280;27745;57.100;-2.920;2022-07-29T09:19:35;63229.69;;;-143.83;100.00
42083;BME280;27745;57.100;-2.920;2022-07-29T09:22:03;63229.69;;;-143.83;100.00
42083;BME280;27745;57.100;-2.920;2022-07-29T09:24:40;63229.69;;;-143.83;100.00
42083;BME280;27745;57.100;-2.920;2022-07-29T09:27:31;63229.69;;;-143.83;100.00
42083;BME280;27745;57.100;-2.920;2022-07-29T09:30:00;63229.69;;;-143.83;100.00
42083;BME280;27745;57.100;-2.920;2022-07-29T09:32:27;63229.69;;;-143.83;100.00
42083;BME280;27745;57.100;-2.920;2022-07-29T09:35:19;63229.69;;;-143.83;100.00
42083;BME280;27745;57.100;-2.920;2022-07-29T09:37:45;66997.19;;;22.99;79.72
42083;BME280;27745;57.100;-2.920;2022-07-29T09:40:20;63229.69;;;-142.52;100.00
42083;BME280;27745;57.100;-2.920;2022-07-29T09:42:46;99093.56;;;15.13;79.02
42083;BME280;27745;57.100;-2.920;2022-07-29T09:45:12;63229.69;;;-143.83;100.00
42083;BME280;27745;57.100;-2.920;2022-07-29T09:47:46;63229.69;;;-143.83;100.00
42083;BME280;27745;57.100;-2.920;2022-07-29T09:50:14;63229.69;;;-143.83;100.00
42083;BME280;27745;57.100;-2.920;2022-07-29T09:52:49;63229.69;;;-143.83;100.00
42083;BME280;27745;57.100;-2.920;2022-07-29T09:55:15;63229.69;;;-143.83;100.00
42083;BME280;27745;57.100;-2.920;2022-07-29T09:57:41;72828.41;;;-143.83;100.00
42083;BME280;27745;57.100;-2.920;2022-07-29T10:00:19;-59103.53;;;-143.83;0.00
42083;BME280;27745;57.100;-2.920;2022-07-29T10:02:46;-59103.53;;;-143.83;0.00
42083;BME280;27745;57.100;-2.920;2022-07-29T10:05:22;-59103.53;;;-143.83;0.00
42083;BME280;27745;57.100;-2.920;2022-07-29T10:07:49;-59103.53;;;-143.83;0.00
42083;BME280;27745;57.100;-2.920;2022-07-29T10:10:23;-59103.53;;;-143.83;0.00
42083;BME280;27745;57.100;-2.920;2022-07-29T10:12:55;-59103.53;;;-143.83;0.00
42083;BME280;27745;57.100;-2.920;2022-07-29T10:15:22;-59103.53;;;-143.83;0.00
42083;BME280;27745;57.100;-2.920;2022-07-29T10:17:49;-59103.53;;;-143.83;0.00
42083;BME280;27745;57.100;-2.920;2022-07-29T10:20:15;-59103.53;;;-143.83;0.00
42083;BME280;27745;57.100;-2.920;2022-07-29T10:22:41;-59103.53;;;-143.83;0.00
42083;BME280;27745;57.100;-2.920;2022-07-29T10:25:08;-59103.53;;;-143.83;0.00
42083;BME280;27745;57.100;-2.920;2022-07-29T10:27:35;-59103.53;;;-143.83;0.00
42083;BME280;27745;57.100;-2.920;2022-07-29T10:30:01;69328.72;;;16.13;0.00
42083;BME280;27745;57.100;-2.920;2022-07-29T10:32:40;-59103.53;;;-145.14;0.00
42083;BME280;27745;57.100;-2.920;2022-07-29T10:38:30;-59103.53;;;-143.83;0.00
42083;BME280;27745;57.100;-2.920;2022-07-29T10:41:31;-59103.53;;;-143.83;0.00
42083;BME280;27745;57.100;-2.920;2022-07-29T10:46:28;-59103.53;;;-143.83;0.00
42083;BME280;27745;57.100;-2.920;2022-07-29T10:49:06;-59103.53;;;-143.83;0.00
42083;BME280;27745;57.100;-2.920;2022-07-29T10:51:59;-59103.53;;;-143.83;0.00
42083;BME280;27745;57.100;-2.920;2022-07-29T10:57:16;-59103.53;;;-143.83;0.00
42083;BME280;27745;57.100;-2.920;2022-07-29T10:59:43;-59103.53;;;-143.83;0.00
42083;BME280;27745;57.100;-2.920;2022-07-29T11:05:09;-59103.53;;;-143.83;0.00
42083;BME280;27745;57.100;-2.920;2022-07-29T11:07:36;-59103.53;;;-143.83;0.00
42083;BME280;27745;57.100;-2.920;2022-07-29T11:15:04;-59103.53;;;-143.83;0.00
42083;BME280;27745;57.100;-2.920;2022-07-29T11:20:50;-59103.53;;;-143.83;0.00
42083;BME280;27745;57.100;-2.920;2022-07-29T11:23:33;-59103.53;;;-143.83;0.00
42083;BME280;27745;57.100;-2.920;2022-07-29T11:26:18;-59103.53;;;-143.83;0.00
42083;BME280;27745;57.100;-2.920;2022-07-29T11:34:28;-59103.53;;;-143.83;0.00
42083;BME280;27745;57.100;-2.920;2022-07-29T11:39:32;-59103.53;;;-143.83;0.00
42083;BME280;27745;57.100;-2.920;2022-07-29T11:47:39;-59103.53;;;-143.83;0.00
42083;BME280;27745;57.100;-2.920;2022-07-29T11:50:11;-59103.53;;;-143.83;0.00
42083;BME280;27745;57.100;-2.920;2022-07-29T11:52:38;-59103.53;;;-145.14;0.00
42083;BME280;27745;57.100;-2.920;2022-07-29T11:55:16;-59103.53;;;-143.83;0.00
42083;BME280;27745;57.100;-2.920;2022-07-29T11:57:56;-59103.53;;;-143.83;0.00
42083;BME280;27745;57.100;-2.920;2022-07-29T12:02:47;-59103.53;;;-143.83;0.00
42083;BME280;27745;57.100;-2.920;2022-07-29T12:05:13;-59103.53;;;-145.14;0.00
42083;BME280;27745;57.100;-2.920;2022-07-29T12:07:39;-59103.53;;;-145.14;0.00
42083;BME280;27745;57.100;-2.920;2022-07-29T12:10:06;-59103.53;;;-145.14;0.00
42083;BME280;27745;57.100;-2.920;2022-07-29T12:12:33;-59103.53;;;-143.83;0.00
42083;BME280;27745;57.100;-2.920;2022-07-29T12:15:10;-59103.53;;;-145.14;0.00
42083;BME280;27745;57.100;-2.920;2022-07-29T12:17:36;-59103.53;;;-145.14;0.00
42083;BME280;27745;57.100;-2.920;2022-07-29T12:20:03;-59103.53;;;-145.14;0.00
42083;BME280;27745;57.100;-2.920;2022-07-29T12:22:31;-59103.53;;;-145.14;0.00
42083;BME280;27745;57.100;-2.920;2022-07-29T12:25:05;-59103.53;;;-145.14;0.00
42083;BME280;27745;57.100;-2.920;2022-07-29T12:27:31;-59103.53;;;-145.14;0.00
42083;BME280;27745;57.100;-2.920;2022-07-29T12:30:00;-59103.53;;;-145.14;0.00
42083;BME280;27745;57.100;-2.920;2022-07-29T12:32:46;-59103.53;;;-143.83;0.00
42083;BME280;27745;57.100;-2.920;2022-07-29T12:35:18;-59103.53;;;-145.14;44.77
42083;BME280;27745;57.100;-2.920;2022-07-29T12:37:47;-59103.53;;;-145.14;0.00
42083;BME280;27745;57.100;-2.920;2022-07-29T12:40:15;-59103.53;;;-145.14;0.00
42083;BME280;27745;57.100;-2.920;2022-07-29T12:43:05;-59103.53;;;-143.83;0.00
42083;BME280;27745;57.100;-2.920;2022-07-29T12:45:31;-59103.53;;;-143.83;0.00
42083;BME280;27745;57.100;-2.920;2022-07-29T12:47:57;-59103.53;;;-145.14;0.00
42083;BME280;27745;57.100;-2.920;2022-07-29T12:50:22;-59103.53;;;-143.83;0.00
42083;BME280;27745;57.100;-2.920;2022-07-29T12:52:49;-59103.53;;;-145.14;0.00
42083;BME280;27745;57.100;-2.920;2022-07-29T12:55:14;-59103.53;;;-145.14;0.00
42083;BME280;27745;57.100;-2.920;2022-07-29T12:57:50;-59103.53;;;-145.14;0.00
42083;BME280;27745;57.100;-2.920;2022-07-29T13:00:22;-59103.53;;;-145.14;0.00
42083;BME280;27745;57.100;-2.920;2022-07-29T13:02:55;-59103.53;;;-145.14;0.00
42083;BME280;27745;57.100;-2.920;2022-07-29T13:05:21;-59103.53;;;-143.83;0.00
42083;BME280;27745;57.100;-2.920;2022-07-29T13:07:47;-59103.53;;;-145.14;0.00
42083;BME280;27745;57.100;-2.920;2022-07-29T13:10:17;-59103.53;;;-145.14;0.00
42083;BME280;27745;57.100;-2.920;2022-07-29T13:13:03;-59103.53;;;-145.14;0.00
42083;BME280;27745;57.100;-2.920;2022-07-29T13:15:28;-59103.53;;;-145.14;0.00